Time;durP1;ratioP1;P1;durP2;ratioP2;P2;SDS_P1;SDS_P2;PMS_P1;PMS_P2;Temp;Humidity;BMP_temperature;BMP_pressure;BME280_temperature;BME280_humidity;BME280_pressure;Samples;Min_cycle;Max_cycle;Signal;HPM_P1;HPM_P2
2021/04/06 00:02:24;;;;;;;;;;;;;;;2.93;100.00;97932.08;4291856;82;20181;-80
2021/04/06 00:08:30;;;;;;;;;;;;;;;2.96;100.00;97922.36;4289029;82;20462;-80
2021/04/06 00:14:34;;;;;;;;;;;;;;;2.93;100.00;97902.88;4304085;81;20187;-81
2021/04/06 00:20:38;;;;;;;;;;;;;;;2.97;100.00;97901.45;4279546;82;20179;-82
2021/04/06 00:26:48;;;;;;;;;;;;;;;2.89;100.00;97916.28;4316929;80;20232;-81
2021/04/06 00:32:56;;;;;;;;;;;;;;;2.93;100.00;97910.84;4275414;82;20160;-81
2021/04/06 00:38:58;;;;;;;;;;;;;;;2.89;100.00;97917.61;4345555;80;20166;-82
2021/04/06 00:45:10;;;;;;;;;;;;;;;2.75;100.00;97944.16;4245584;84;20549;-82
2021/04/06 00:51:15;;;;;;;;;;;;;;;2.74;100.00;97943.06;4289775;83;20248;-81
2021/04/06 00:57:19;;;;;;;;;;;;;;;2.64;100.00;97944.80;4254947;82;20287;-82
2021/04/06 01:03:23;;;;;;;;;;;;;;;2.46;100.00;97945.44;4281136;82;20176;-82
2021/04/06 01:09:35;;;;;;;;;;;;;;;2.48;100.00;97946.88;4260424;82;20192;-81
2021/04/06 01:15:39;;;;;;;;;;;;;;;2.62;100.00;97943.70;4289675;83;20248;-82
2021/04/06 01:21:42;;;;;;;;;;;;;;;2.60;100.00;97939.61;4305644;81;20242;-82
2021/04/06 01:27:44;;;;;;;;;;;;;;;2.52;100.00;97951.27;4389682;80;20178;-81
2021/04/06 01:33:46;;;;;;;;;;;;;;;2.51;100.00;97942.47;4256678;84;20172;-82
2021/04/06 01:39:50;;;;;;;;;;;;;;;2.52;100.00;97957.89;4329150;81;20205;-82
2021/04/06 01:46:03;;;;;;;;;;;;;;;2.54;100.00;97966.95;4255771;83;20485;-82
2021/04/06 01:52:05;;;;;;;;;;;;;;;2.26;100.00;97970.12;4234614;82;20192;-81
2021/04/06 01:58:09;;;;;;;;;;;;;;;2.46;100.00;97968.81;4287212;82;20235;-82
2021/04/06 02:04:11;;;;;;;;;;;;;;;2.28;100.00;97956.14;4312409;81;20318;-82
2021/04/06 02:10:13;;;;;;;;;;;;;;;2.14;100.00;97949.22;4265959;81;20443;-80
2021/04/06 02:16:15;;;;;;;;;;;;;;;2.11;100.00;97958.91;4361459;81;20184;-82
2021/04/06 02:22:20;;;;;;;;;;;;;;;2.07;100.00;97947.89;4299500;83;20242;-81
2021/04/06 02:28:23;;;;;;;;;;;;;;;1.92;100.00;97967.96;4245955;82;20286;-82
2021/04/06 02:34:37;;;;;;;;;;;;;;;2.02;100.00;97966.23;4282845;81;20467;-83
2021/04/06 02:40:39;;;;;;;;;;;;;;;2.06;100.00;97975.43;4280662;82;20183;-81
2021/04/06 02:46:48;;;;;;;;;;;;;;;2.19;100.00;97993.20;4341238;81;20471;-81
2021/04/06 02:52:44;;;;;;;;;;;;;;;2.21;100.00;97987.98;4273096;81;20196;-81
2021/04/06 02:58:46;;;;;;;;;;;;;;;2.07;100.00;97988.98;4269613;82;20262;-82
2021/04/06 03:04:49;;;;;;;;;;;;;;;2.19;100.00;98009.11;4263833;82;20176;-80
2021/04/06 03:10:54;;;;;;;;;;;;;;;2.17;100.00;98010.63;4260151;82;20641;-81
2021/04/06 03:16:57;;;;;;;;;;;;;;;2.32;100.00;98010.44;4262120;83;20192;-79
2021/04/06 03:22:58;;;;;;;;;;;;;;;2.30;100.00;98020.44;4177843;85;20466;-81
2021/04/06 03:29:01;;;;;;;;;;;;;;;2.13;100.00;98034.57;4238496;84;20170;-81
2021/04/06 03:35:04;;;;;;;;;;;;;;;2.03;100.00;98054.03;4190632;85;20542;-80
2021/04/06 03:41:06;;;;;;;;;;;;;;;1.81;100.00;98032.47;4248451;84;20197;-80
2021/04/06 03:47:08;;;;;;;;;;;;;;;1.83;100.00;97985.89;4259011;82;20507;-80
2021/04/06 03:53:11;;;;;;;;;;;;;;;1.73;100.00;97998.71;4261593;82;20183;-80
2021/04/06 03:59:13;;;;;;;;;;;;;;;1.51;100.00;98022.16;4260794;83;20279;-81
2021/04/06 04:05:15;;;;;;;;;;;;;;;1.57;100.00;98024.53;4276408;82;20211;-83
2021/04/06 04:11:17;;;;;;;;;;;;;;;1.36;100.00;98017.52;4282134;83;20645;-82
2021/04/06 04:17:19;;;;;;;;;;;;;;;1.61;100.00;98023.11;4262027;83;20197;-81
2021/04/06 04:23:21;;;;;;;;;;;;;;;1.63;100.00;98028.22;4234765;83;20172;-82
2021/04/06 04:29:23;;;;;;;;;;;;;;;1.82;100.00;98041.22;4242816;83;20282;-81
2021/04/06 04:35:25;;;;;;;;;;;;;;;1.80;100.00;98061.31;4227007;82;20166;-81
2021/04/06 04:41:27;;;;;;;;;;;;;;;1.66;100.00;98068.89;4216491;84;20194;-81
2021/04/06 04:47:28;;;;;;;;;;;;;;;2.03;100.00;98058.00;4215758;83;20223;-81
2021/04/06 04:53:30;;;;;;;;;;;;;;;1.85;100.00;98066.02;4279245;82;20582;-82
2021/04/06 04:59:32;;;;;;;;;;;;;;;2.03;100.00;98060.66;4276217;82;20494;-84
2021/04/06 05:05:34;;;;;;;;;;;;;;;2.11;100.00;98077.72;4241200;82;20231;-82
2021/04/06 05:11:36;;;;;;;;;;;;;;;1.92;100.00;98092.03;4291021;81;20460;-81
2021/04/06 05:17:38;;;;;;;;;;;;;;;1.82;100.00;98106.16;4300768;82;20366;-84
2021/04/06 05:23:41;;;;;;;;;;;;;;;1.81;100.00;98107.17;4299427;81;20271;-82
2021/04/06 05:29:43;;;;;;;;;;;;;;;1.72;100.00;98100.41;4298242;81;20164;-83
2021/04/06 05:35:45;;;;;;;;;;;;;;;1.70;100.00;98119.17;4306175;81;20212;-79
2021/04/06 05:41:48;;;;;;;;;;;;;;;1.95;100.00;98112.03;4297716;82;20322;-81
2021/04/06 05:47:51;;;;;;;;;;;;;;;2.06;100.00;98111.45;4291730;81;20460;-81
2021/04/06 05:53:54;;;;;;;;;;;;;;;2.25;100.00;98121.01;4301094;81;20220;-80
2021/04/06 05:59:56;;;;;;;;;;;;;;;2.41;100.00;98119.83;4285577;81;20689;-80
2021/04/06 06:05:58;;;;;;;;;;;;;;;2.64;100.00;98120.80;4281117;82;20239;-80
2021/04/06 06:12:08;;;;;;;;;;;;;;;2.61;100.00;98129.66;4304461;81;20216;-81
2021/04/06 06:18:10;;;;;;;;;;;;;;;2.72;100.00;98107.83;4280103;82;20192;-80
2021/04/06 06:24:33;;;;;;;;;;;;;;;2.86;100.00;98108.66;4292368;81;20280;-81
2021/04/06 06:30:38;;;;;;;;;;;;;;;2.72;100.00;98110.48;4274970;81;20563;-80
2021/04/06 06:36:41;;;;;;;;;;;;;;;3.13;100.00;98113.14;4296954;82;20382;-79
2021/04/06 06:42:43;;;;;;;;;;;;;;;3.03;100.00;98112.24;4308617;81;20582;-81
2021/04/06 06:48:53;;;;;;;;;;;;;;;3.19;100.00;98103.84;4275232;82;20512;-81
2021/04/06 06:55:04;;;;;;;;;;;;;;;2.93;100.00;98100.69;4287326;83;20239;-80
2021/04/06 07:01:07;;;;;;;;;;;;;;;2.95;100.00;98103.15;4297380;81;20161;-80
2021/04/06 07:07:10;;;;;;;;;;;;;;;3.07;100.00;98104.16;4267189;82;20545;-81
2021/04/06 07:13:18;;;;;;;;;;;;;;;2.94;100.00;98099.66;4278323;82;20468;-81
2021/04/06 07:19:21;;;;;;;;;;;;;;;2.91;100.00;98098.75;4244532;81;20278;-81
2021/04/06 07:25:23;;;;;;;;;;;;;;;2.83;100.00;98096.30;4297159;80;20202;-82
2021/04/06 07:31:25;;;;;;;;;;;;;;;2.56;100.00;98103.73;4275370;82;20199;-81
2021/04/06 07:37:27;;;;;;;;;;;;;;;2.48;100.00;98113.20;4302749;82;20283;-81
2021/04/06 07:43:29;;;;;;;;;;;;;;;2.55;100.00;98110.06;4274167;81;20191;-81
2021/04/06 07:49:41;;;;;;;;;;;;;;;2.34;100.00;98116.33;4295968;81;20269;-81
2021/04/06 07:55:43;;;;;;;;;;;;;;;2.68;100.00;98103.13;4299745;81;20186;-81
2021/04/06 08:01:58;;;;;;;;;;;;;;;2.48;100.00;98106.56;4282534;81;23995;-81
2021/04/06 08:08:04;;;;;;;;;;;;;;;2.16;100.00;98108.94;4308841;81;20191;-81
2021/04/06 08:14:07;;;;;;;;;;;;;;;2.26;100.00;98109.91;4344527;81;20299;-79
2021/04/06 08:20:18;;;;;;;;;;;;;;;2.66;100.00;98100.70;4372102;80;20236;-80
2021/04/06 08:26:32;;;;;;;;;;;;;;;2.77;100.00;98100.09;4347431;80;20260;-80
2021/04/06 08:32:34;;;;;;;;;;;;;;;3.10;100.00;98105.59;4299304;82;20176;-81
2021/04/06 08:38:42;;;;;;;;;;;;;;;2.92;100.00;98120.30;4283278;81;20314;-79
2021/04/06 08:44:47;;;;;;;;;;;;;;;3.78;100.00;98132.86;4325237;82;20700;-81
2021/04/06 08:50:49;;;;;;;;;;;;;;;3.62;100.00;98126.95;4356372;80;20217;-80
2021/04/06 08:56:56;;;;;;;;;;;;;;;3.59;100.00;98131.38;4258315;82;20190;-82
2021/04/06 09:03:06;;;;;;;;;;;;;;;3.44;100.00;98130.28;4348162;81;20234;-82
2021/04/06 09:09:12;;;;;;;;;;;;;;;3.29;100.00;98133.16;4332428;81;20479;-82
2021/04/06 09:15:16;;;;;;;;;;;;;;;3.17;100.00;98128.47;4326684;81;20204;-83
2021/04/06 09:21:20;;;;;;;;;;;;;;;3.14;100.00;98126.73;4248432;82;20252;-82
2021/04/06 09:27:22;;;;;;;;;;;;;;;3.40;100.00;98111.80;4301851;80;20275;-82
2021/04/06 09:33:24;;;;;;;;;;;;;;;4.12;100.00;98086.50;4265748;82;20531;-81
2021/04/06 09:39:28;;;;;;;;;;;;;;;4.37;99.27;98068.43;4279653;82;20188;-82
2021/04/06 09:45:31;;;;;;;;;;;;;;;4.83;91.82;98082.45;4264925;82;21175;-84
2021/04/06 09:51:34;;;;;;;;;;;;;;;4.68;93.97;98088.09;4239959;82;20209;-83
2021/04/06 09:57:41;;;;;;;;;;;;;;;4.52;95.00;98093.42;4266331;82;20273;-84
2021/04/06 10:03:45;;;;;;;;;;;;;;;4.71;89.85;98084.19;4273576;82;20279;-83
2021/04/06 10:09:53;;;;;;;;;;;;;;;5.09;82.01;98089.09;4310457;83;20176;-85
2021/04/06 10:16:06;;;;;;;;;;;;;;;5.07;78.55;98117.28;4316060;82;20184;-86
2021/04/06 10:22:14;;;;;;;;;;;;;;;5.45;75.53;98112.84;4328347;81;20267;-84
2021/04/06 10:28:22;;;;;;;;;;;;;;;5.41;74.03;98117.79;4326490;82;20509;-86
2021/04/06 10:34:27;;;;;;;;;;;;;;;5.40;63.30;98102.03;4319735;81;20484;-80
2021/04/06 10:40:42;;;;;;;;;;;;;;;6.06;64.53;98099.67;4328301;82;20246;-88
2021/04/06 10:46:44;;;;;;;;;;;;;;;5.79;58.00;98093.81;4295691;81;20176;-84
2021/04/06 10:52:46;;;;;;;;;;;;;;;6.08;60.96;98084.25;4319345;81;20207;-83
2021/04/06 10:58:50;;;;;;;;;;;;;;;5.75;61.14;98080.64;4305818;81;20423;-83
2021/04/06 11:04:52;;;;;;;;;;;;;;;5.71;62.90;98061.60;4262871;82;20245;-84
2021/04/06 11:10:56;;;;;;;;;;;;;;;5.96;59.15;98075.34;4199378;83;20624;-83
2021/04/06 11:17:05;;;;;;;;;;;;;;;5.50;60.63;98066.34;4206232;83;20297;-83
2021/04/06 11:23:05;;;;;;;;;;;;;;;6.32;61.88;98070.19;4233456;83;20186;-84
2021/04/06 11:29:09;;;;;;;;;;;;;;;5.77;58.57;98060.69;4200311;83;20197;-83
2021/04/06 11:35:12;;;;;;;;;;;;;;;5.76;57.38;98060.39;4210047;83;20190;-85
2021/04/06 11:41:16;;;;;;;;;;;;;;;5.96;56.53;98052.67;4220942;83;20230;-85
2021/04/06 11:47:17;;;;;;;;;;;;;;;5.77;60.69;98046.55;4225224;83;20363;-85
2021/04/06 11:53:19;;;;;;;;;;;;;;;6.50;58.39;98031.92;4224627;83;20191;-84
2021/04/06 11:59:21;;;;;;;;;;;;;;;5.91;57.89;98032.53;4203303;83;20209;-87
2021/04/06 12:05:26;;;;;;;;;;;;;;;6.25;57.34;98031.58;4247255;82;20247;-85
2021/04/06 12:11:27;;;;;;;;;;;;;;;5.54;58.22;98052.06;4315365;81;20312;-86
2021/04/06 12:17:30;;;;;;;;;;;;;;;5.97;57.20;98021.77;4299075;82;20537;-85
2021/04/06 12:23:34;;;;;;;;;;;;;;;5.70;56.20;98014.64;4292791;81;20163;-86
2021/04/06 12:29:36;;;;;;;;;;;;;;;5.67;52.45;98004.40;4304399;82;20231;-85
2021/04/06 12:35:38;;;;;;;;;;;;;;;6.19;53.35;98022.62;4311399;81;20557;-85
2021/04/06 12:41:41;;;;;;;;;;;;;;;5.78;50.47;98003.66;4292793;81;20471;-87
2021/04/06 12:47:43;;;;;;;;;;;;;;;5.90;48.34;98003.69;4317984;81;20207;-86
2021/04/06 12:53:52;;;;;;;;;;;;;;;6.22;52.68;97978.12;4302300;81;20290;-86
2021/04/06 13:06:51;;;;;;;;;;;;;;;6.12;47.29;97992.54;4475263;78;20184;-85
2021/04/06 13:13:00;;;;;;;;;;;;;;;6.05;51.08;97981.97;4388238;79;20218;-85
2021/04/06 13:19:22;;;;;;;;;;;;;;;6.07;49.70;97981.75;4379835;79;20186;-86
2021/04/06 13:25:25;;;;;;;;;;;;;;;6.26;49.44;97979.81;4326585;79;20251;-85
2021/04/06 13:31:28;;;;;;;;;;;;;;;6.40;48.93;97976.42;4363073;79;20221;-84
2021/04/06 13:37:40;;;;;;;;;;;;;;;6.29;47.36;97976.68;4380205;79;20250;-85
2021/04/06 13:43:55;;;;;;;;;;;;;;;6.70;45.82;97966.17;4349627;80;20548;-84
2021/04/06 13:49:57;;;;;;;;;;;;;;;6.16;43.13;97976.38;4379549;79;20221;-85
2021/04/06 13:55:59;;;;;;;;;;;;;;;5.38;46.74;97987.63;4386534;80;20239;-84
2021/04/06 14:02:01;;;;;;;;;;;;;;;5.79;49.81;97977.28;4427722;80;20513;-82
2021/04/06 14:08:04;;;;;;;;;;;;;;;5.78;58.96;97968.16;4362985;80;20275;-83
2021/04/06 14:14:07;;;;;;;;;;;;;;;5.77;66.58;97963.33;4336843;80;20168;-83
2021/04/06 14:20:12;;;;;;;;;;;;;;;5.85;71.96;97955.55;4352690;81;20183;-82
2021/04/06 14:26:14;;;;;;;;;;;;;;;5.79;72.58;97959.95;4347863;80;20240;-84
2021/04/06 14:32:17;;;;;;;;;;;;;;;5.66;69.58;97959.59;4305826;81;20175;-83
2021/04/06 14:38:20;;;;;;;;;;;;;;;5.50;64.73;97965.03;4338816;80;20336;-82
2021/04/06 14:44:22;;;;;;;;;;;;;;;4.70;74.14;97973.38;4319796;80;20200;-83
2021/04/06 14:50:25;;;;;;;;;;;;;;;4.24;100.00;97984.17;4361716;79;20269;-84
2021/04/06 14:56:27;;;;;;;;;;;;;;;4.70;96.36;97952.88;4363205;80;20186;-83
2021/04/06 15:02:29;;;;;;;;;;;;;;;4.45;79.83;97954.23;4335221;80;20285;-84
2021/04/06 15:08:32;;;;;;;;;;;;;;;4.54;76.71;97958.78;4385685;79;20666;-83
2021/04/06 15:14:34;;;;;;;;;;;;;;;4.71;85.10;97964.36;4381877;80;20656;-84
2021/04/06 15:20:37;;;;;;;;;;;;;;;4.02;100.00;97980.54;4388439;80;20187;-85
2021/04/06 15:26:40;;;;;;;;;;;;;;;4.27;100.00;97970.46;4375167;80;20198;-84
2021/04/06 15:32:42;;;;;;;;;;;;;;;4.11;98.81;97973.64;4371928;79;20598;-82
2021/04/06 15:38:43;;;;;;;;;;;;;;;4.12;94.22;97974.77;4389796;79;20653;-83
2021/04/06 15:44:45;;;;;;;;;;;;;;;4.53;92.53;97970.44;4377232;80;20289;-84
2021/04/06 15:50:49;;;;;;;;;;;;;;;4.45;84.22;97971.53;4390664;79;20281;-84
2021/04/06 15:56:54;;;;;;;;;;;;;;;4.51;82.26;97970.67;4368343;79;20376;-84
2021/04/06 16:03:01;;;;;;;;;;;;;;;4.46;73.16;97970.50;4385635;79;20355;-85
2021/04/06 16:09:01;;;;;;;;;;;;;;;4.60;70.55;97972.53;4383178;79;20287;-86
2021/04/06 16:15:04;;;;;;;;;;;;;;;4.52;69.14;97970.97;4385412;79;20240;-84
2021/04/06 16:21:07;;;;;;;;;;;;;;;4.65;68.61;97967.88;4369518;79;20171;-84
2021/04/06 16:27:09;;;;;;;;;;;;;;;4.55;72.89;97971.05;4374540;79;20484;-85
2021/04/06 16:33:12;;;;;;;;;;;;;;;4.51;72.04;97962.69;4374514;79;20380;-85
2021/04/06 16:39:14;;;;;;;;;;;;;;;4.34;71.13;97962.42;4384014;79;20201;-84
2021/04/06 16:45:16;;;;;;;;;;;;;;;4.13;68.65;97967.58;4387960;79;20266;-83
2021/04/06 16:51:18;;;;;;;;;;;;;;;3.93;69.37;97961.88;4390389;80;20276;-86
2021/04/06 16:57:20;;;;;;;;;;;;;;;3.71;71.72;97978.16;4380922;79;20492;-84
2021/04/06 17:03:23;;;;;;;;;;;;;;;3.52;76.02;97981.73;4379021;79;20245;-85
2021/04/06 17:09:25;;;;;;;;;;;;;;;3.23;86.53;97982.05;4373965;79;20174;-83
2021/04/06 17:15:28;;;;;;;;;;;;;;;2.90;96.86;97990.92;4369700;79;20180;-84
2021/04/06 17:21:30;;;;;;;;;;;;;;;2.92;100.00;97988.37;4385434;79;20295;-82
2021/04/06 17:27:32;;;;;;;;;;;;;;;3.04;100.00;97988.53;4392048;79;20450;-86
2021/04/06 17:33:35;;;;;;;;;;;;;;;2.99;100.00;97988.84;4379895;79;20228;-87
2021/04/06 17:39:37;;;;;;;;;;;;;;;2.91;100.00;97988.56;4358223;79;20179;-84
2021/04/06 17:45:40;;;;;;;;;;;;;;;2.85;100.00;97986.23;4383924;79;20498;-84
2021/04/06 17:51:42;;;;;;;;;;;;;;;2.69;100.00;97986.14;4389970;79;20594;-85
2021/04/06 17:57:44;;;;;;;;;;;;;;;2.56;100.00;97982.98;4390738;79;20293;-85
2021/04/06 18:03:46;;;;;;;;;;;;;;;2.29;100.00;97999.41;4385518;79;20257;-86
2021/04/06 18:09:48;;;;;;;;;;;;;;;2.26;100.00;98011.23;4393582;79;20267;-84
2021/04/06 18:15:50;;;;;;;;;;;;;;;1.92;100.00;98024.43;4364147;79;20190;-84
2021/04/06 18:21:53;;;;;;;;;;;;;;;1.66;100.00;98032.62;4382581;79;20245;-85
2021/04/06 18:27:57;;;;;;;;;;;;;;;1.72;100.00;98034.15;4394494;79;20242;-84
2021/04/06 18:34:02;;;;;;;;;;;;;;;1.66;100.00;98034.44;4315891;81;20228;-84
2021/04/06 18:40:09;;;;;;;;;;;;;;;1.50;100.00;98034.27;4238150;82;21075;-84
2021/04/06 18:46:13;;;;;;;;;;;;;;;1.45;100.00;98025.59;4309120;81;20201;-84
2021/04/06 18:52:18;;;;;;;;;;;;;;;1.32;100.00;98024.21;4294230;81;20319;-85
2021/04/06 18:58:21;;;;;;;;;;;;;;;1.20;100.00;98022.64;4315394;81;20181;-83
2021/04/06 19:04:30;;;;;;;;;;;;;;;0.99;100.00;98029.65;4309623;81;20622;-83
2021/04/06 19:10:35;;;;;;;;;;;;;;;1.01;100.00;98032.08;4291129;81;20611;-84
2021/04/06 19:16:42;;;;;;;;;;;;;;;0.88;100.00;98032.80;4304472;82;20241;-83
2021/04/06 19:22:45;;;;;;;;;;;;;;;0.67;100.00;98026.05;4319284;81;20232;-83
2021/04/06 19:28:47;;;;;;;;;;;;;;;0.49;100.00;98029.17;4288019;82;20493;-85
2021/04/06 19:34:49;;;;;;;;;;;;;;;0.39;100.00;98032.65;4289670;82;20477;-86
2021/04/06 19:40:51;;;;;;;;;;;;;;;0.32;100.00;98036.56;4291211;82;20212;-84
2021/04/06 19:46:53;;;;;;;;;;;;;;;0.21;100.00;98031.75;4297561;81;20177;-86
2021/04/06 19:52:57;;;;;;;;;;;;;;;0.18;100.00;98036.94;4299652;82;20415;-83
2021/04/06 19:58:59;;;;;;;;;;;;;;;-0.03;100.00;98038.56;4289114;82;20595;-84
2021/04/06 20:05:01;;;;;;;;;;;;;;;0.09;100.00;98040.19;4284300;82;20235;-85
2021/04/06 20:11:03;;;;;;;;;;;;;;;0.12;100.00;98044.28;4300644;81;20485;-83
2021/04/06 20:17:05;;;;;;;;;;;;;;;0.16;100.00;98042.92;4301238;81;20275;-84
2021/04/06 20:23:09;;;;;;;;;;;;;;;0.22;100.00;98041.34;4290287;81;20300;-83
2021/04/06 20:29:14;;;;;;;;;;;;;;;0.15;100.00;98036.48;4288260;81;20273;-83
2021/04/06 20:35:17;;;;;;;;;;;;;;;0.19;100.00;98040.38;4291754;81;20195;-82
2021/04/06 20:41:21;;;;;;;;;;;;;;;-0.03;100.00;98031.95;4287923;81;20197;-82
2021/04/06 20:47:26;;;;;;;;;;;;;;;-0.09;100.00;98035.33;4292869;81;20197;-86
2021/04/06 20:53:30;;;;;;;;;;;;;;;0.08;100.00;98039.88;4272871;81;20296;-84
2021/04/06 20:59:32;;;;;;;;;;;;;;;0.06;100.00;98045.05;4300014;81;20183;-86
2021/04/06 21:05:35;;;;;;;;;;;;;;;0.12;100.00;98049.57;4252663;81;20297;-86
2021/04/06 21:11:36;;;;;;;;;;;;;;;0.03;100.00;98042.77;4198334;83;20345;-84
2021/04/06 21:17:39;;;;;;;;;;;;;;;-0.10;100.00;98049.55;4239537;82;20239;-84
2021/04/06 21:23:41;;;;;;;;;;;;;;;-0.02;100.00;98050.77;4262540;83;20274;-87
2021/04/06 21:29:43;;;;;;;;;;;;;;;-0.13;100.00;98060.50;4291310;82;20171;-88
2021/04/06 21:35:44;;;;;;;;;;;;;;;-0.10;100.00;98063.28;4287751;83;20269;-88
2021/04/06 21:41:48;;;;;;;;;;;;;;;-0.23;100.00;98053.38;4274256;82;20555;-87
2021/04/06 21:47:50;;;;;;;;;;;;;;;-0.28;100.00;98048.64;4238545;83;20286;-85
2021/04/06 21:53:52;;;;;;;;;;;;;;;-0.45;100.00;98047.52;4246213;83;20397;-86
2021/04/06 21:59:55;;;;;;;;;;;;;;;-0.47;100.00;98043.41;4248650;83;20341;-87
2021/04/06 22:05:57;;;;;;;;;;;;;;;-0.53;100.00;98038.89;4286378;81;20264;-87
2021/04/06 22:11:59;;;;;;;;;;;;;;;-0.61;100.00;98035.34;4325537;81;20193;-87
2021/04/06 22:18:06;;;;;;;;;;;;;;;-0.61;100.00;98025.30;4322983;81;20205;-85
2021/04/06 22:24:09;;;;;;;;;;;;;;;-0.57;100.00;98018.14;4319943;81;20197;-87
2021/04/06 22:30:16;;;;;;;;;;;;;;;-0.63;100.00;98018.03;4324367;81;20563;-89
2021/04/06 22:36:18;;;;;;;;;;;;;;;-0.74;100.00;98017.50;4330141;81;20283;-86
2021/04/06 22:42:20;;;;;;;;;;;;;;;-0.73;100.00;98015.69;4320320;81;20178;-86
2021/04/06 22:48:22;;;;;;;;;;;;;;;-0.69;100.00;98002.95;4313725;81;20189;-83
2021/04/06 22:54:24;;;;;;;;;;;;;;;-0.67;100.00;97996.49;4326057;81;20339;-85
2021/04/06 23:00:31;;;;;;;;;;;;;;;-0.79;100.00;97992.66;4309022;81;20196;-86
2021/04/06 23:06:32;;;;;;;;;;;;;;;-0.86;100.00;98000.00;4310073;81;20251;-85
2021/04/06 23:12:35;;;;;;;;;;;;;;;-0.89;100.00;98003.50;4313534;81;20311;-84
2021/04/06 23:18:37;;;;;;;;;;;;;;;-0.97;100.00;97997.83;4322863;81;20224;-84
2021/04/06 23:24:39;;;;;;;;;;;;;;;-1.12;100.00;98000.46;4322647;81;20291;-85
2021/04/06 23:30:42;;;;;;;;;;;;;;;-0.95;100.00;98004.22;4299832;81;20197;-87
2021/04/06 23:36:44;;;;;;;;;;;;;;;-1.00;100.00;98003.45;4324470;81;20204;-86
2021/04/06 23:42:46;;;;;;;;;;;;;;;-1.06;100.00;98002.88;4328446;81;20405;-87
2021/04/06 23:48:48;;;;;;;;;;;;;;;-1.15;100.00;97996.84;4318901;81;20279;-86
2021/04/06 23:54:50;;;;;;;;;;;;;;;-1.26;100.00;97996.80;4311787;81;20248;-85
